Bentonville, AR (72712)

1:15 AM CDT on May 06, 2015 (GMT -0500)
KARBENTO2 | | Change Station
CLOSE
Current Station
Personal Weather Station
Location: Bentonville, AR
Elevation: 1289 ft
Nearby Weather Stations

Elev 1289 ft 36.36 °N, 94.20 °W | Updated 16 seconds ago

Partly Cloudy
Partly Cloudy
68.4 °F
Feels Like 68.4 °F
N
3.3
Wind Variable Wind from East
Gusts 7.8 mph

Today
High -- | Low -- °F
--% Chance of Precip.
Yesterday
High -- | Low -- °F
Precip. -- in
6:18 AM 8:08 PM
Waning Gibbous, 95% visible
Pressure 30.03 in
Visibility 10.0 miles
Clouds Clear
Dew Point 54 °F
Humidity 61%
Rainfall 0.00 in
Snow Depth Not available.
UV 0 out of 12
Pollen 8.60 out of 12
Air Quality Not available.
Flu Activity No Activity
METAR KROG 060457Z AUTO 12008KT 10SM CLR 20/12 A3006 RMK AO2 SLP167 T02000122 402720150 TSNO PNO $

More Conditions Fewer Conditions

Pressure 30.03 in
Visibility 10.0 miles
Clouds Clear
Dew Point 54 °F
Humidity 61%
Rainfall 0.00 in
Snow Depth Not available.
UV 0 out of 12
Pollen 8.60 out of 12
Air Quality Not available.
Flu Activity No Activity
METAR KROG 060457Z AUTO 12008KT 10SM CLR 20/12 A3006 RMK AO2 SLP167 T02000122 402720150 TSNO PNO $

More Conditions Fewer Conditions

Nowcast | as of 1:03 am CDT on May 6, 2015

At 1 am...widespread showers and scattered thunderstorms were ongoing west of a line from Barnsdall...to Tulsa...to western Pittsburgh County. Strong to severe storms were ongoing further west across central Oklahoma. Further east isolated showers were noted across far southeast Oklahoma. Movement was to the east and northeast at 40 mph. Through 2 am...showers and scattered thunderstorms will continue to expand across eastern Oklahoma...primarily along and west of Highway 75. Locally gusty winds and periods of heavy rainfall can be expected. Motorists should be alert for ponding on roadways.

×

10-Day Weather Forecast

Almanac

Astronomy

May. 06, 2015 Rise Set
Actual Time
Civil Twilight
Nautical Twilight
Astronomical Twilight
Moon
Length of Visible Light
Length of Day
Tomorrow will be .
, % of the Moon is Illuminated

Today's Extremes

State Highs State Lows

Community

WunderPhotos

Upload Photos

1,818,848 photos uploaded!

WunderBlogs® & News

Nearby

Air Quality

  Air Quality AQ Index Pollutant
Not available.

Snow Depth

Station Depth Elevation

Earthquake Activity

City Distance Mag. Time & Date
Minimum magnitude displayed is 2.5.

Coastal Water Temperatures

Place Temperature

Stations

Nearby Weather Stations

Station Location Temp. Windchill Dew Point Humidity Wind Precip. Elev Updated Type